Time;durP1;ratioP1;P1;durP2;ratioP2;P2;SDS_P1;SDS_P2;PMS_P1;PMS_P2;Temp;Humidity;BMP_temperature;BMP_pressure;BME280_temperature;BME280_humidity;BME280_pressure;Samples;Min_cycle;Max_cycle;Signal;HPM_P1;HPM_P2
2023/10/08 00:00:49;;;;;;;1.65;0.60;;;13.40;99.90;;;;;;4978850;28;90947;-33
2023/10/08 00:03:17;;;;;;;1.38;0.90;;;13.30;99.90;;;;;;4980108;28;90668;-32
2023/10/08 00:05:43;;;;;;;1.73;1.23;;;13.30;99.90;;;;;;4977124;28;89270;-32
2023/10/08 00:08:09;;;;;;;0.95;0.70;;;13.30;99.90;;;;;;4970143;28;90227;-30
2023/10/08 00:10:42;;;;;;;1.10;1.00;;;13.30;99.90;;;;;;4979453;28;89764;-32
2023/10/08 00:13:09;;;;;;;2.22;1.50;;;13.40;99.90;;;;;;4980827;28;89464;-34
2023/10/08 00:15:44;;;;;;;1.48;1.25;;;13.50;99.90;;;;;;4967136;28;89392;-31
2023/10/08 00:18:11;;;;;;;1.20;1.10;;;13.50;99.90;;;;;;4979271;28;91736;-32
2023/10/08 00:23:25;;;;;;;2.17;1.50;;;13.40;99.90;;;;;;4977651;28;89845;-31
2023/10/08 00:25:54;;;;;;;3.13;1.98;;;13.50;99.90;;;;;;4969127;28;89944;-32
2023/10/08 00:28:24;;;;;;;2.00;1.77;;;13.40;99.90;;;;;;4965551;28;89747;-30
2023/10/08 00:30:50;;;;;;;3.10;1.85;;;13.30;99.90;;;;;;4980452;28;88370;-33
2023/10/08 00:33:16;;;;;;;4.97;1.77;;;13.20;99.90;;;;;;4978839;28;89697;-34
2023/10/08 00:35:42;;;;;;;1.73;1.63;;;13.30;99.90;;;;;;4980951;28;89601;-32
2023/10/08 00:38:20;;;;;;;2.58;1.77;;;13.20;99.90;;;;;;4966551;28;90256;-33
2023/10/08 00:40:50;;;;;;;2.85;2.13;;;13.10;99.90;;;;;;4969214;28;89680;-32
2023/10/08 00:43:35;;;;;;;3.50;2.30;;;13.20;99.90;;;;;;4976295;28;89539;-34
2023/10/08 00:46:17;;;;;;;5.90;2.95;;;13.20;99.90;;;;;;4972535;28;87722;-34
2023/10/08 00:48:44;;;;;;;2.28;2.08;;;13.30;99.90;;;;;;4948854;28;90018;-31
2023/10/08 00:51:44;;;;;;;3.25;2.05;;;13.30;99.90;;;;;;4972744;28;90689;-33
2023/10/08 00:54:06;;;;;;;5.80;2.35;;;13.40;99.90;;;;;;4968090;28;90768;-34
2023/10/08 00:59:21;;;;;;;1.75;1.38;;;13.20;99.90;;;;;;4963981;28;90722;-35
2023/10/08 01:01:51;;;;;;;2.35;1.73;;;13.30;99.90;;;;;;4969091;28;89713;-34
2023/10/08 01:04:22;;;;;;;2.35;1.90;;;13.40;99.90;;;;;;4977977;28;89297;-33
2023/10/08 01:07:01;;;;;;;3.95;2.28;;;13.40;99.90;;;;;;4979279;28;88829;-34
2023/10/08 01:09:35;;;;;;;2.30;1.30;;;13.30;99.90;;;;;;4977516;28;90094;-32
2023/10/08 01:15:05;;;;;;;1.90;1.35;;;13.40;99.90;;;;;;4966973;28;89058;-33
2023/10/08 01:17:32;;;;;;;3.58;1.50;;;13.30;99.90;;;;;;4977670;28;89678;-31
2023/10/08 01:20:21;;;;;;;2.13;1.60;;;13.30;99.90;;;;;;4979386;28;89305;-33
2023/10/08 01:22:46;;;;;;;1.20;1.10;;;13.40;99.90;;;;;;4960518;28;90689;-34
2023/10/08 01:25:21;;;;;;;0.88;0.88;;;13.20;99.90;;;;;;4977499;28;89538;-34
2023/10/08 01:27:47;;;;;;;3.85;1.45;;;13.10;99.90;;;;;;4979735;28;88353;-34
2023/10/08 01:30:17;;;;;;;2.85;1.60;;;13.10;99.90;;;;;;4978684;28;89884;-33
2023/10/08 01:32:44;;;;;;;1.33;1.23;;;13.20;99.90;;;;;;4979813;28;88642;-32
2023/10/08 01:35:22;;;;;;;1.98;1.40;;;13.10;99.90;;;;;;4979141;28;89305;-33
2023/10/08 01:37:59;;;;;;;1.60;1.50;;;13.10;99.90;;;;;;4979002;28;89044;-30
2023/10/08 01:40:26;;;;;;;3.80;1.48;;;13.20;99.90;;;;;;4952769;28;89777;-32
2023/10/08 01:42:52;;;;;;;3.88;1.58;;;13.20;99.90;;;;;;4959052;28;90809;-32
2023/10/08 01:45:19;;;;;;;2.13;1.48;;;13.20;99.90;;;;;;4958610;28;90814;-31
2023/10/08 01:47:45;;;;;;;1.85;1.65;;;13.10;99.90;;;;;;4973462;28;87896;-33
2023/10/08 01:50:27;;;;;;;1.60;1.45;;;13.00;99.90;;;;;;4978921;28;90169;-31
2023/10/08 01:52:53;;;;;;;1.80;1.67;;;13.20;99.90;;;;;;4965838;28;89170;-31
2023/10/08 01:55:19;;;;;;;3.88;2.03;;;13.10;99.90;;;;;;4979645;28;88902;-32
2023/10/08 01:57:49;;;;;;;2.20;1.63;;;13.10;99.90;;;;;;4978302;28;90617;-33
2023/10/08 02:00:22;;;;;;;3.35;1.83;;;13.10;99.90;;;;;;4979075;28;89869;-32
2023/10/08 02:02:51;;;;;;;5.32;2.17;;;13.10;99.90;;;;;;4960985;28;89398;-33
2023/10/08 02:05:18;;;;;;;2.70;1.83;;;13.10;99.90;;;;;;4959749;28;89986;-31
2023/10/08 02:07:44;;;;;;;2.37;1.97;;;13.10;99.90;;;;;;4958821;28;90341;-34
2023/10/08 02:10:10;;;;;;;3.80;2.03;;;13.10;99.90;;;;;;4959370;28;90325;-36
2023/10/08 02:12:42;;;;;;;2.70;2.13;;;13.00;99.90;;;;;;4959546;28;91083;-34
2023/10/08 02:15:11;;;;;;;2.08;1.88;;;13.10;99.90;;;;;;4959810;28;89926;-33
2023/10/08 02:17:38;;;;;;;2.88;2.00;;;13.10;99.90;;;;;;4959929;28;89640;-34
2023/10/08 02:20:05;;;;;;;5.57;2.17;;;13.10;99.90;;;;;;4958085;28;89813;-32
2023/10/08 02:22:32;;;;;;;3.97;2.55;;;13.10;99.90;;;;;;4959433;28;89077;-32
2023/10/08 02:25:01;;;;;;;4.83;1.97;;;13.20;99.90;;;;;;4959018;28;90260;-32
2023/10/08 02:27:27;;;;;;;3.97;2.30;;;13.20;99.90;;;;;;4959872;28;89088;-32
2023/10/08 02:29:54;;;;;;;4.07;2.50;;;13.10;99.90;;;;;;4958505;28;90472;-33
2023/10/08 02:32:22;;;;;;;4.95;2.55;;;13.00;99.90;;;;;;4956959;28;90704;-32
2023/10/08 02:34:48;;;;;;;2.22;1.92;;;13.10;99.90;;;;;;4959309;28;90049;-34
2023/10/08 02:37:15;;;;;;;2.10;1.90;;;13.10;99.90;;;;;;4960434;28;88995;-32
2023/10/08 02:39:40;;;;;;;2.78;2.03;;;13.10;99.90;;;;;;4970572;28;89859;-31
2023/10/08 02:42:10;;;;;;;1.52;1.42;;;13.10;99.90;;;;;;4972177;28;89331;-32
2023/10/08 02:44:41;;;;;;;2.03;1.80;;;13.20;99.90;;;;;;4966723;28;89255;-33
2023/10/08 02:47:16;;;;;;;2.28;2.10;;;13.20;99.90;;;;;;4979336;28;88448;-32
2023/10/08 02:49:42;;;;;;;3.90;2.50;;;13.20;99.90;;;;;;4964683;28;90732;-33
2023/10/08 02:52:12;;;;;;;3.70;2.33;;;13.20;99.90;;;;;;4968212;28;89638;-33
2023/10/08 02:54:38;;;;;;;3.30;2.25;;;13.10;99.90;;;;;;4958275;28;90237;-33
2023/10/08 02:57:09;;;;;;;2.72;2.10;;;13.20;99.90;;;;;;4958721;28;90383;-33
2023/10/08 02:59:42;;;;;;;4.72;2.00;;;13.20;99.90;;;;;;4958721;28;89907;-34
2023/10/08 03:02:21;;;;;;;2.35;1.58;;;13.20;99.90;;;;;;4958603;28;89672;-33
2023/10/08 03:04:50;;;;;;;4.97;2.00;;;13.20;99.90;;;;;;4946763;28;88817;-30
2023/10/08 03:07:22;;;;;;;2.08;1.88;;;13.30;99.90;;;;;;4958132;28;89183;-33
2023/10/08 03:09:50;;;;;;;8.45;1.83;;;13.20;99.90;;;;;;4968366;28;90154;-31
2023/10/08 03:12:17;;;;;;;3.85;2.60;;;13.20;99.90;;;;;;4977987;28;89484;-30
2023/10/08 03:14:49;;;;;;;2.35;2.00;;;13.20;99.90;;;;;;4977728;28;89858;-31
2023/10/08 03:17:19;;;;;;;3.95;2.22;;;13.30;99.90;;;;;;4977250;28;88959;-34
2023/10/08 03:19:46;;;;;;;1.65;1.55;;;13.20;99.90;;;;;;4977386;28;91521;-33
2023/10/08 03:22:12;;;;;;;2.80;2.05;;;13.20;99.90;;;;;;4957981;28;90585;-32
2023/10/08 03:24:38;;;;;;;2.65;1.80;;;13.20;99.90;;;;;;4958420;28;90603;-32
2023/10/08 03:27:06;;;;;;;3.92;1.80;;;13.20;99.90;;;;;;4957982;28;90671;-32
2023/10/08 03:29:41;;;;;;;4.10;2.27;;;13.30;99.90;;;;;;4958603;28;89823;-32
2023/10/08 03:32:18;;;;;;;2.30;2.10;;;13.20;99.90;;;;;;4963796;28;91144;-32
2023/10/08 03:34:49;;;;;;;2.63;2.15;;;13.20;99.90;;;;;;4962099;28;90383;-34
2023/10/08 03:37:21;;;;;;;3.15;1.83;;;13.20;99.90;;;;;;4963084;28;89452;-32
2023/10/08 03:39:50;;;;;;;2.75;1.92;;;13.10;99.90;;;;;;4981608;28;90039;-34
2023/10/08 03:42:23;;;;;;;1.90;1.73;;;13.10;99.90;;;;;;4978398;28;87880;-34
2023/10/08 03:44:51;;;;;;;3.55;2.55;;;13.10;99.90;;;;;;4961173;28;88422;-34
2023/10/08 03:47:22;;;;;;;7.05;2.72;;;13.00;99.90;;;;;;4970127;28;89640;-31
2023/10/08 03:49:50;;;;;;;2.30;1.98;;;13.00;99.90;;;;;;4963564;28;90188;-32
2023/10/08 03:52:21;;;;;;;2.80;2.25;;;13.10;99.90;;;;;;4971155;28;89303;-33
2023/10/08 03:55:04;;;;;;;2.13;1.95;;;13.10;99.90;;;;;;4980002;28;88834;-30
2023/10/08 03:57:41;;;;;;;5.70;1.75;;;13.10;99.90;;;;;;4980936;28;88524;-32
2023/10/08 04:00:18;;;;;;;2.17;2.00;;;13.10;99.90;;;;;;4981338;28;88972;-34
2023/10/08 04:02:55;;;;;;;2.55;1.23;;;13.10;99.90;;;;;;4979152;28;88952;-31
2023/10/08 04:05:27;;;;;;;2.35;2.00;;;13.10;99.90;;;;;;4979153;28;89096;-32
2023/10/08 04:13:08;;;;;;;3.65;2.08;;;13.00;99.90;;;;;;4970018;28;90508;-32
2023/10/08 04:15:34;;;;;;;4.63;2.33;;;13.00;99.90;;;;;;4979112;28;91679;-33
2023/10/08 04:18:02;;;;;;;3.67;2.33;;;13.00;99.90;;;;;;4980824;28;89575;-33
2023/10/08 04:23:04;;;;;;;2.38;2.17;;;13.00;99.90;;;;;;4973688;28;89823;-31
2023/10/08 04:25:31;;;;;;;4.28;2.35;;;13.00;99.90;;;;;;4979782;28;88952;-32
2023/10/08 04:27:58;;;;;;;4.97;1.92;;;13.00;99.90;;;;;;4979988;28;90235;-31
2023/10/08 04:30:36;;;;;;;1.52;1.40;;;13.00;99.90;;;;;;4955508;28;90903;-33
2023/10/08 04:33:12;;;;;;;;;;;13.00;99.90;;;;;;4980418;28;89613;-30
2023/10/08 04:35:55;;;;;;;2.33;1.52;;;13.10;99.90;;;;;;4981567;28;89385;-33
2023/10/08 04:38:23;;;;;;;1.92;1.40;;;13.10;99.90;;;;;;4979946;28;90845;-33
2023/10/08 04:40:51;;;;;;;4.83;2.47;;;13.00;99.90;;;;;;4963039;28;90310;-32
2023/10/08 04:43:24;;;;;;;;;;;13.00;99.90;;;;;;4949500;28;90054;-34
2023/10/08 04:46:08;;;;;;;2.42;1.33;;;13.00;99.90;;;;;;4960982;28;89134;-31
2023/10/08 04:48:43;;;;;;;2.72;2.13;;;13.00;99.90;;;;;;4949097;28;89758;-32
2023/10/08 04:51:12;;;;;;;3.47;1.50;;;13.00;99.90;;;;;;4960188;28;91215;-33
2023/10/08 04:53:40;;;;;;;3.33;1.55;;;12.90;99.90;;;;;;4954512;28;89945;-33
2023/10/08 04:56:17;;;;;;;2.15;1.27;;;12.90;99.90;;;;;;4961349;28;89600;-31
2023/10/08 04:58:47;;;;;;;2.25;1.48;;;12.90;99.90;;;;;;4960973;28;89501;-33
2023/10/08 05:01:17;;;;;;;2.70;1.70;;;13.00;99.90;;;;;;4959577;28;90288;-33
2023/10/08 05:04:06;;;;;;;3.67;2.03;;;12.90;99.90;;;;;;4958854;28;90334;-32
2023/10/08 05:17:03;;;;;;;3.72;1.40;;;12.90;99.90;;;;;;4959664;28;89078;-32
2023/10/08 05:22:43;;;;;;;3.88;2.05;;;12.90;99.90;;;;;;4949397;28;89070;-32
2023/10/08 05:30:16;;;;;;;2.53;1.77;;;12.90;99.90;;;;;;4959742;28;89229;-31
2023/10/08 05:38:21;;;;;;;2.80;1.83;;;12.90;99.90;;;;;;4967964;28;89615;-35
2023/10/08 05:49:03;;;;;;;3.60;2.83;;;12.90;99.90;;;;;;4948398;28;89593;-34
2023/10/08 05:54:36;;;;;;;4.82;2.35;;;12.90;99.90;;;;;;4978308;28;89774;-35
2023/10/08 05:57:35;;;;;;;3.53;1.97;;;12.90;99.90;;;;;;4979151;28;90793;-31
2023/10/08 06:07:48;;;;;;;4.18;2.10;;;12.90;99.90;;;;;;4971160;28;89548;-31
2023/10/08 06:10:42;;;;;;;2.63;1.92;;;12.90;99.90;;;;;;4971056;28;89652;-31
2023/10/08 06:13:44;;;;;;;7.03;2.20;;;12.90;99.90;;;;;;4966538;28;90347;-32
2023/10/08 06:16:13;;;;;;;3.53;2.03;;;12.90;99.90;;;;;;4949270;28;91910;-33
2023/10/08 06:18:39;;;;;;;3.15;2.08;;;12.90;99.90;;;;;;4970006;28;88821;-31
2023/10/08 06:21:08;;;;;;;2.17;1.58;;;12.90;99.90;;;;;;4968712;28;90060;-34
2023/10/08 06:23:36;;;;;;;1.60;1.50;;;13.00;99.90;;;;;;4974981;28;90228;-33
2023/10/08 06:28:36;;;;;;;4.40;2.05;;;13.00;99.90;;;;;;4972164;28;89740;-33
2023/10/08 06:31:11;;;;;;;3.25;2.08;;;13.00;99.90;;;;;;4976553;28;89643;-34
2023/10/08 06:33:38;;;;;;;4.63;2.13;;;13.00;99.90;;;;;;4960417;28;89166;-33
2023/10/08 06:38:40;;;;;;;4.15;1.58;;;13.00;99.90;;;;;;4970046;28;91910;-33
2023/10/08 06:43:49;;;;;;;5.93;1.75;;;13.10;99.90;;;;;;4977270;28;88876;-32
2023/10/08 06:46:18;;;;;;;2.25;1.77;;;13.10;99.90;;;;;;4966340;28;89701;-32
2023/10/08 06:48:45;;;;;;;5.75;1.52;;;13.20;99.90;;;;;;4977563;28;90828;-32
2023/10/08 06:51:12;;;;;;;6.20;2.10;;;13.20;99.90;;;;;;4962117;28;90909;-33
2023/10/08 06:53:48;;;;;;;4.25;1.83;;;13.20;99.90;;;;;;4965989;28;88468;-32
2023/10/08 06:56:15;;;;;;;6.45;1.83;;;13.30;99.90;;;;;;4957444;28;89841;-33
2023/10/08 06:58:52;;;;;;;3.80;2.20;;;13.30;99.90;;;;;;4965962;28;89723;-34
2023/10/08 07:01:24;;;;;;;3.10;1.85;;;13.40;99.90;;;;;;4970296;28;88579;-34
2023/10/08 07:04:03;;;;;;;2.88;1.55;;;13.30;99.90;;;;;;4963758;28;88656;-33
2023/10/08 07:06:31;;;;;;;1.92;1.80;;;13.40;99.90;;;;;;4974651;28;88366;-33
2023/10/08 07:09:04;;;;;;;2.85;1.58;;;13.40;99.90;;;;;;4964918;28;89623;-33
2023/10/08 07:11:34;;;;;;;3.33;1.70;;;13.50;99.90;;;;;;4963945;28;89279;-30
2023/10/08 07:14:01;;;;;;;2.35;1.40;;;13.50;99.90;;;;;;4966110;28;89999;-33
2023/10/08 07:16:28;;;;;;;2.35;1.80;;;13.50;99.90;;;;;;4963084;28;89856;-31
2023/10/08 07:19:01;;;;;;;3.20;1.50;;;13.50;99.90;;;;;;4965691;28;89548;-32
2023/10/08 07:21:37;;;;;;;5.60;1.92;;;13.50;99.90;;;;;;4963759;28;89409;-34
2023/10/08 07:24:08;;;;;;;5.47;1.77;;;13.60;99.90;;;;;;4951339;28;89688;-32
2023/10/08 07:26:37;;;;;;;4.57;1.67;;;13.60;99.90;;;;;;4963121;28;90767;-31
2023/10/08 07:29:11;;;;;;;3.20;1.73;;;13.60;99.90;;;;;;4963657;28;89401;-33
2023/10/08 07:31:48;;;;;;;3.50;1.60;;;13.60;99.90;;;;;;4962965;28;89370;-31
2023/10/08 07:34:18;;;;;;;2.55;1.58;;;13.60;99.90;;;;;;4965358;28;89979;-31
2023/10/08 07:36:49;;;;;;;2.05;1.30;;;13.70;99.90;;;;;;4979455;28;90293;-35
2023/10/08 07:41:50;;;;;;;3.67;1.60;;;13.80;99.90;;;;;;4968852;28;90464;-32
2023/10/08 07:44:21;;;;;;;4.72;1.75;;;13.90;99.90;;;;;;4974475;28;89462;-32
2023/10/08 07:46:51;;;;;;;5.05;2.25;;;13.90;99.90;;;;;;4980516;28;89905;-34
2023/10/08 07:49:17;;;;;;;4.95;1.48;;;13.90;99.90;;;;;;4980827;28;90428;-32
2023/10/08 07:51:50;;;;;;;6.80;1.90;;;14.00;99.90;;;;;;4966516;28;89053;-34
2023/10/08 07:54:29;;;;;;;3.22;2.00;;;13.90;99.90;;;;;;4967291;28;89713;-31
2023/10/08 07:57:08;;;;;;;5.25;1.85;;;14.00;99.90;;;;;;4981188;28;90218;-31
2023/10/08 07:59:38;;;;;;;3.13;1.85;;;14.00;99.90;;;;;;4979625;28;89628;-32
2023/10/08 08:02:09;;;;;;;3.83;1.42;;;14.00;99.90;;;;;;4979653;28;88244;-33
2023/10/08 08:04:46;;;;;;;3.10;2.10;;;14.00;99.90;;;;;;4973863;28;90636;-32
2023/10/08 08:07:15;;;;;;;2.00;1.85;;;14.00;99.90;;;;;;4961498;28;90180;-31
2023/10/08 08:09:48;;;;;;;2.25;2.00;;;14.00;99.90;;;;;;4959061;28;89138;-32
2023/10/08 08:12:13;;;;;;;3.72;1.58;;;14.00;99.90;;;;;;4963492;28;89587;-33
2023/10/08 08:14:41;;;;;;;4.70;2.17;;;14.00;99.90;;;;;;4960230;28;88482;-34
2023/10/08 08:17:13;;;;;;;5.15;2.30;;;14.00;99.90;;;;;;4955626;28;90583;-35
2023/10/08 08:19:52;;;;;;;4.63;2.15;;;14.00;99.90;;;;;;4958472;28;89076;-32
2023/10/08 08:22:23;;;;;;;3.60;2.17;;;14.00;99.90;;;;;;4972081;28;87992;-34
2023/10/08 08:25:15;;;;;;;3.75;2.17;;;14.00;99.90;;;;;;4974244;28;88425;-32
2023/10/08 08:27:43;;;;;;;8.20;2.40;;;14.00;99.90;;;;;;4966314;28;91100;-34
2023/10/08 08:30:10;;;;;;;3.20;2.30;;;14.00;99.90;;;;;;4960811;28;90100;-33
2023/10/08 08:32:39;;;;;;;1.88;1.60;;;14.00;99.90;;;;;;4974347;28;90435;-33
2023/10/08 08:35:07;;;;;;;3.10;1.90;;;13.90;99.90;;;;;;4961691;28;90653;-34
2023/10/08 08:37:35;;;;;;;3.10;2.08;;;14.00;99.90;;;;;;4975313;28;89176;-34
2023/10/08 08:40:08;;;;;;;5.68;1.83;;;13.90;99.90;;;;;;4977781;28;89440;-32
2023/10/08 08:42:35;;;;;;;4.75;2.35;;;13.90;99.90;;;;;;4979391;28;89454;-32
2023/10/08 08:45:08;;;;;;;3.43;2.13;;;14.00;99.90;;;;;;4960760;28;89183;-34
2023/10/08 08:47:35;;;;;;;2.95;1.50;;;14.00;99.90;;;;;;4972315;28;89942;-32
2023/10/08 08:50:08;;;;;;;3.88;1.70;;;14.00;99.90;;;;;;4959364;28;91436;-31
2023/10/08 08:52:36;;;;;;;4.88;1.80;;;14.10;99.90;;;;;;4971773;28;89423;-33
2023/10/08 08:55:09;;;;;;;;;;;14.20;99.90;;;;;;4967829;28;89101;-31
2023/10/08 08:57:39;;;;;;;5.60;2.63;;;14.40;99.90;;;;;;4980626;28;91146;-32
2023/10/08 09:00:10;;;;;;;5.70;2.10;;;14.40;99.90;;;;;;4978009;28;89702;-32
2023/10/08 09:02:37;;;;;;;4.63;2.17;;;14.50;99.90;;;;;;4978588;28;90466;-34
2023/10/08 09:07:57;;;;;;;4.50;1.70;;;14.60;99.90;;;;;;4959263;28;90360;-33
2023/10/08 09:10:28;;;;;;;5.32;1.67;;;14.70;99.90;;;;;;4973428;28;89767;-31
2023/10/08 09:12:54;;;;;;;4.35;1.80;;;14.70;99.90;;;;;;4970823;28;89122;-34
2023/10/08 09:15:23;;;;;;;5.00;2.17;;;14.70;99.90;;;;;;4960808;28;89789;-31
2023/10/08 09:17:49;;;;;;;5.65;2.30;;;14.80;99.90;;;;;;4970058;28;90177;-32
2023/10/08 09:20:15;;;;;;;6.15;2.25;;;14.80;99.90;;;;;;4959988;28;89908;-30
2023/10/08 09:22:41;;;;;;;8.68;2.42;;;14.80;99.90;;;;;;4950200;28;90501;-32
2023/10/08 09:25:07;;;;;;;7.45;2.28;;;14.90;99.90;;;;;;4960486;28;88597;-33
2023/10/08 09:27:33;;;;;;;3.42;1.48;;;14.90;99.90;;;;;;4959724;28;91121;-36
2023/10/08 09:30:07;;;;;;;4.75;1.70;;;15.00;99.90;;;;;;4952843;28;89369;-34
2023/10/08 09:32:33;;;;;;;5.43;1.88;;;15.00;99.90;;;;;;4960467;28;89085;-34
2023/10/08 09:35:00;;;;;;;5.57;1.95;;;15.10;99.90;;;;;;4946606;28;88118;-32
2023/10/08 09:37:26;;;;;;;12.23;2.35;;;15.00;99.90;;;;;;4944506;28;89903;-34
2023/10/08 09:39:54;;;;;;;5.53;1.92;;;15.10;99.90;;;;;;4962425;28;89458;-34
2023/10/08 09:42:22;;;;;;;7.10;1.55;;;15.00;99.90;;;;;;4958712;28;89443;-33
2023/10/08 09:44:48;;;;;;;5.15;1.88;;;15.00;99.90;;;;;;4957107;28;89655;-33
2023/10/08 09:47:22;;;;;;;8.30;1.83;;;15.10;99.90;;;;;;4958442;28;90020;-32
2023/10/08 09:50:11;;;;;;;4.22;2.30;;;15.10;99.90;;;;;;4957285;28;90185;-31
2023/10/08 09:52:43;;;;;;;5.10;1.48;;;15.20;99.90;;;;;;4957995;28;88027;-32
2023/10/08 09:55:12;;;;;;;6.35;1.65;;;15.20;99.90;;;;;;4958843;28;89327;-32
2023/10/08 09:57:38;;;;;;;3.72;1.67;;;15.20;99.90;;;;;;4957932;28;90581;-33
2023/10/08 10:00:10;;;;;;;6.20;1.33;;;15.30;99.90;;;;;;4957934;28;89710;-35
2023/10/08 10:02:40;;;;;;;8.82;2.47;;;15.20;99.90;;;;;;4958563;28;89315;-32
2023/10/08 10:05:11;;;;;;;5.93;2.28;;;15.40;99.90;;;;;;4958035;28;88341;-32
2023/10/08 10:07:40;;;;;;;4.82;1.60;;;15.40;99.90;;;;;;4957752;28;91055;-33
2023/10/08 10:10:26;;;;;;;9.32;2.20;;;15.50;99.90;;;;;;4957623;28;90491;-31
2023/10/08 10:12:51;;;;;;;5.38;1.98;;;15.50;99.90;;;;;;4952242;28;90828;-31
2023/10/08 10:15:21;;;;;;;8.18;2.10;;;15.50;99.90;;;;;;4958484;28;87936;-35
2023/10/08 10:17:49;;;;;;;7.25;2.00;;;15.50;99.90;;;;;;4959112;28;90397;-33
2023/10/08 10:20:15;;;;;;;4.30;2.20;;;15.50;99.90;;;;;;4957787;28;89719;-30
2023/10/08 10:22:43;;;;;;;6.75;2.15;;;15.50;99.90;;;;;;4958339;28;89657;-31
2023/10/08 10:25:20;;;;;;;;;;;15.50;99.90;;;;;;4963751;28;89240;-34
2023/10/08 10:27:55;;;;;;;8.05;2.28;;;15.60;99.90;;;;;;4969836;28;90881;-34
2023/10/08 10:30:23;;;;;;;8.20;1.63;;;15.60;99.90;;;;;;4954400;28;90472;-34
2023/10/08 10:32:51;;;;;;;7.00;2.90;;;15.70;99.90;;;;;;4976592;28;89150;-31
2023/10/08 10:35:20;;;;;;;6.35;2.65;;;15.70;99.90;;;;;;4973173;28;88844;-33
2023/10/08 10:37:51;;;;;;;;;;;15.70;99.90;;;;;;4961751;28;90224;-32
2023/10/08 10:40:39;;;;;;;4.30;2.50;;;15.80;99.90;;;;;;4958490;28;89236;-32
2023/10/08 10:43:06;;;;;;;9.93;2.42;;;15.90;99.90;;;;;;4956710;28;88768;-33
2023/10/08 10:45:36;;;;;;;9.40;2.40;;;15.90;99.90;;;;;;4957857;28;89784;-32
2023/10/08 10:48:14;;;;;;;6.53;2.25;;;15.90;99.90;;;;;;4965615;28;90417;-33
2023/10/08 10:53:26;;;;;;;6.88;2.83;;;15.80;99.90;;;;;;4957876;28;88836;-33
2023/10/08 10:56:09;;;;;;;8.93;1.98;;;15.80;99.90;;;;;;4957429;28;89559;-32
2023/10/08 10:58:41;;;;;;;6.78;2.28;;;15.90;99.90;;;;;;4957090;28;90908;-32
2023/10/08 11:01:46;;;;;;;4.60;2.33;;;16.00;99.90;;;;;;4957498;28;90686;-34
2023/10/08 11:03:58;;;;;;;7.72;2.72;;;16.00;99.90;;;;;;4955215;28;90012;-31
2023/10/08 11:06:25;;;;;;;11.02;2.60;;;15.90;99.90;;;;;;4957354;28;89192;-33
2023/10/08 11:08:52;;;;;;;10.10;2.85;;;16.00;99.90;;;;;;4957593;28;91817;-33
2023/10/08 11:11:19;;;;;;;4.88;1.95;;;15.90;99.90;;;;;;4956998;28;89981;-32
2023/10/08 11:13:51;;;;;;;4.88;2.28;;;15.90;99.90;;;;;;4957361;28;89646;-33
2023/10/08 11:16:19;;;;;;;7.55;2.42;;;15.90;99.90;;;;;;4957796;28;89902;-32
2023/10/08 11:18:57;;;;;;;7.03;2.15;;;15.80;99.90;;;;;;4957383;28;89775;-31
2023/10/08 11:21:24;;;;;;;5.90;1.40;;;15.90;99.90;;;;;;4957691;28;89389;-33
2023/10/08 11:23:55;;;;;;;8.35;2.25;;;15.90;99.90;;;;;;4957790;28;91385;-31
2023/10/08 11:26:32;;;;;;;10.23;2.42;;;15.90;99.90;;;;;;4957626;28;89908;-33
2023/10/08 11:29:02;;;;;;;6.05;2.42;;;15.90;99.90;;;;;;4970168;28;91562;-31
2023/10/08 11:31:29;;;;;;;4.55;2.10;;;16.00;99.90;;;;;;4968968;28;89620;-30
2023/10/08 11:34:08;;;;;;;6.95;2.58;;;16.00;99.90;;;;;;4971370;28;89700;-33
2023/10/08 11:36:48;;;;;;;4.93;2.15;;;16.00;99.90;;;;;;4962343;28;89831;-31
2023/10/08 11:39:21;;;;;;;6.45;2.00;;;16.00;99.90;;;;;;4963976;28;90716;-33
2023/10/08 11:42:03;;;;;;;5.68;1.83;;;16.00;99.90;;;;;;4962255;28;88219;-33
2023/10/08 11:44:35;;;;;;;15.02;2.05;;;16.10;99.90;;;;;;4949408;28;89709;-31
2023/10/08 11:47:11;;;;;;;5.68;1.92;;;16.10;99.90;;;;;;4958753;28;89688;-33
2023/10/08 11:49:46;;;;;;;5.53;2.17;;;16.10;99.90;;;;;;4956685;28;89678;-35
2023/10/08 11:52:15;;;;;;;14.23;2.40;;;16.20;99.90;;;;;;4960325;28;91549;-31
2023/10/08 11:54:42;;;;;;;5.63;2.38;;;16.20;99.90;;;;;;4963246;28;92160;-32
2023/10/08 11:57:09;;;;;;;7.53;1.85;;;16.30;99.90;;;;;;4971521;28;88285;-32
2023/10/08 11:59:39;;;;;;;6.68;2.83;;;16.40;99.90;;;;;;4962502;28;90187;-32
2023/10/08 12:02:06;;;;;;;3.95;1.67;;;16.40;99.90;;;;;;4971011;28;89570;-31
2023/10/08 12:04:32;;;;;;;9.05;1.98;;;16.40;99.90;;;;;;4975396;28;89057;-32
2023/10/08 12:07:02;;;;;;;7.50;2.13;;;16.40;99.90;;;;;;4961081;28;89662;-33
2023/10/08 12:09:27;;;;;;;5.65;1.50;;;16.30;99.90;;;;;;4971809;28;90514;-33
2023/10/08 12:11:54;;;;;;;3.78;1.63;;;16.40;99.90;;;;;;4977051;28;89612;-34
2023/10/08 12:14:19;;;;;;;5.68;1.98;;;16.40;99.90;;;;;;4961860;28;91522;-30
2023/10/08 12:16:45;;;;;;;4.13;1.95;;;16.40;99.90;;;;;;4976482;28;89546;-34
2023/10/08 12:19:17;;;;;;;5.20;1.95;;;16.30;99.90;;;;;;4973789;28;90268;-33
2023/10/08 12:21:49;;;;;;;8.60;1.92;;;16.40;99.90;;;;;;4976356;28;90272;-35
2023/10/08 12:24:14;;;;;;;6.95;2.33;;;16.50;99.90;;;;;;4966157;28;89351;-32
2023/10/08 12:26:49;;;;;;;3.28;2.17;;;16.60;99.90;;;;;;4968911;28;88340;-33
2023/10/08 12:29:17;;;;;;;6.68;2.03;;;16.50;99.90;;;;;;4964118;28;89055;-34
2023/10/08 12:31:47;;;;;;;4.05;2.42;;;16.40;99.90;;;;;;4968069;28;89741;-33
2023/10/08 12:34:13;;;;;;;5.95;2.50;;;16.50;99.90;;;;;;4968348;28;89476;-33
2023/10/08 12:36:39;;;;;;;7.85;2.03;;;16.50;99.90;;;;;;4959043;28;88429;-33
2023/10/08 12:39:14;;;;;;;7.38;2.88;;;16.40;99.90;;;;;;4957013;28;89246;-33
2023/10/08 12:41:43;;;;;;;2.55;1.50;;;16.50;99.90;;;;;;4959007;28;89201;-33
2023/10/08 12:44:09;;;;;;;14.60;2.55;;;16.50;99.90;;;;;;4956359;28;90190;-33
2023/10/08 12:46:36;;;;;;;4.85;1.90;;;16.60;99.90;;;;;;4954251;28;89151;-30
2023/10/08 12:49:02;;;;;;;3.58;1.83;;;16.70;99.90;;;;;;4959040;28;89896;-32
2023/10/08 12:51:32;;;;;;;5.57;1.85;;;16.80;99.90;;;;;;4959401;28;89204;-34
2023/10/08 12:54:03;;;;;;;5.57;2.10;;;16.80;99.90;;;;;;4959058;28;90302;-32
2023/10/08 12:56:35;;;;;;;4.40;1.45;;;16.70;99.90;;;;;;4958821;28;89020;-34
2023/10/08 12:59:04;;;;;;;5.03;2.08;;;16.70;99.90;;;;;;4952259;28;90045;-31
2023/10/08 13:01:29;;;;;;;9.05;2.22;;;16.80;99.90;;;;;;4958352;28;89338;-32
2023/10/08 13:04:21;;;;;;;8.93;2.03;;;16.80;99.90;;;;;;4959417;28;90105;-32
2023/10/08 13:06:45;;;;;;;8.63;1.80;;;16.70;99.90;;;;;;4958448;28;90087;-31
2023/10/08 13:09:13;;;;;;;3.03;1.70;;;16.60;99.90;;;;;;4959145;28;89598;-30
2023/10/08 13:11:39;;;;;;;4.63;2.13;;;16.60;99.90;;;;;;4957942;28;89572;-34
2023/10/08 13:14:05;;;;;;;6.22;1.98;;;16.60;99.90;;;;;;4959550;28;90043;-35
2023/10/08 13:16:31;;;;;;;7.95;2.35;;;16.60;99.90;;;;;;4960075;28;88863;-33
2023/10/08 13:18:58;;;;;;;5.63;2.08;;;16.40;99.90;;;;;;4955583;28;91906;-34
2023/10/08 13:21:28;;;;;;;6.25;1.27;;;16.50;99.90;;;;;;4956473;28;89700;-32
2023/10/08 13:23:59;;;;;;;3.00;1.77;;;16.50;99.90;;;;;;4957538;28;88775;-34
2023/10/08 13:26:31;;;;;;;8.75;2.72;;;16.50;99.90;;;;;;4958359;28;89759;-33
2023/10/08 13:28:58;;;;;;;2.97;2.20;;;16.40;99.90;;;;;;4970099;28;89866;-31
2023/10/08 13:31:25;;;;;;;4.60;2.35;;;16.50;99.90;;;;;;4966002;28;90427;-32
2023/10/08 13:33:52;;;;;;;8.25;2.42;;;16.60;99.90;;;;;;4961076;28;90279;-33
2023/10/08 13:36:18;;;;;;;4.78;1.80;;;16.50;99.90;;;;;;4967244;28;87786;-31
2023/10/08 13:38:45;;;;;;;4.32;1.77;;;16.50;99.90;;;;;;4962445;28;90305;-33
2023/10/08 13:41:20;;;;;;;7.13;2.05;;;16.40;99.90;;;;;;4959608;28;90296;-31
2023/10/08 13:43:51;;;;;;;7.50;2.45;;;16.40;99.90;;;;;;4956676;28;90255;-32
2023/10/08 13:46:19;;;;;;;9.50;2.30;;;16.40;99.90;;;;;;4960709;28;89454;-31
2023/10/08 13:48:47;;;;;;;;;;;16.40;99.90;;;;;;4958806;28;89326;-34
2023/10/08 13:51:14;;;;;;;5.22;2.13;;;16.40;99.90;;;;;;4959967;28;89505;-34
2023/10/08 13:53:52;;;;;;;4.78;2.15;;;16.30;99.90;;;;;;4959091;28;89835;-32
2023/10/08 13:56:20;;;;;;;9.60;2.73;;;16.20;99.90;;;;;;4956648;28;89062;-36
2023/10/08 13:58:49;;;;;;;8.18;2.13;;;16.20;99.90;;;;;;4957939;28;90008;-33
2023/10/08 14:01:19;;;;;;;4.45;2.10;;;16.20;99.90;;;;;;4957611;28;89772;-35
2023/10/08 14:03:47;;;;;;;3.28;1.50;;;16.30;99.90;;;;;;4958227;28;89484;-33
2023/10/08 14:06:14;;;;;;;4.72;1.50;;;16.20;99.90;;;;;;4959850;28;88285;-34
2023/10/08 14:08:39;;;;;;;2.83;1.83;;;16.20;99.90;;;;;;4959059;28;88636;-31
2023/10/08 14:11:05;;;;;;;5.70;2.03;;;16.20;99.90;;;;;;4957226;28;89696;-33
2023/10/08 14:13:32;;;;;;;17.92;2.70;;;16.20;99.90;;;;;;4959303;28;91118;-31
2023/10/08 14:16:08;;;;;;;9.75;2.33;;;16.30;99.90;;;;;;4957273;28;87686;-34
2023/10/08 14:18:40;;;;;;;5.43;2.20;;;16.30;99.90;;;;;;4958757;28;89621;-32
2023/10/08 14:21:12;;;;;;;10.43;2.67;;;16.40;99.90;;;;;;4957941;28;90764;-32